sensor_id;sensor_type;location;lat;lon;timestamp;temperature;humidity
37285;DHT22;23172;53.550;9.964;2024-03-23T00:55:17;11.50;93.90
37285;DHT22;23172;53.550;9.964;2024-03-23T01:00:19;11.40;93.90
37285;DHT22;23172;53.550;9.964;2024-03-23T01:05:22;11.40;94.00
37285;DHT22;23172;53.550;9.964;2024-03-23T01:10:24;11.40;94.00
37285;DHT22;23172;53.550;9.964;2024-03-23T01:15:26;11.40;94.10
37285;DHT22;23172;53.550;9.964;2024-03-23T01:20:29;11.40;94.20
37285;DHT22;23172;53.550;9.964;2024-03-23T01:25:31;11.30;94.30
37285;DHT22;23172;53.550;9.964;2024-03-23T01:30:33;11.30;94.40
37285;DHT22;23172;53.550;9.964;2024-03-23T01:35:36;11.30;94.50
37285;DHT22;23172;53.550;9.964;2024-03-23T01:40:39;11.20;94.70
37285;DHT22;23172;53.550;9.964;2024-03-23T01:45:40;11.20;94.80
37285;DHT22;23172;53.550;9.964;2024-03-23T01:50:44;11.20;94.90
37285;DHT22;23172;53.550;9.964;2024-03-23T01:55:46;11.20;94.80
37285;DHT22;23172;53.550;9.964;2024-03-23T02:00:48;11.20;94.90
37285;DHT22;23172;53.550;9.964;2024-03-23T02:05:51;11.10;94.90
37285;DHT22;23172;53.550;9.964;2024-03-23T02:10:54;11.10;95.00
37285;DHT22;23172;53.550;9.964;2024-03-23T02:15:55;11.10;95.10
37285;DHT22;23172;53.550;9.964;2024-03-23T02:20:59;11.10;95.20
37285;DHT22;23172;53.550;9.964;2024-03-23T02:26:02;11.00;95.40
37285;DHT22;23172;53.550;9.964;2024-03-23T02:31:04;11.00;95.60
37285;DHT22;23172;53.550;9.964;2024-03-23T02:36:06;11.00;95.60
37285;DHT22;23172;53.550;9.964;2024-03-23T02:41:09;11.00;95.60
37285;DHT22;23172;53.550;9.964;2024-03-23T02:46:11;11.00;95.70
37285;DHT22;23172;53.550;9.964;2024-03-23T02:51:13;10.90;95.30
37285;DHT22;23172;53.550;9.964;2024-03-23T02:56:16;10.90;95.70
37285;DHT22;23172;53.550;9.964;2024-03-23T03:01:18;10.90;95.40
37285;DHT22;23172;53.550;9.964;2024-03-23T03:06:24;10.90;95.50
37285;DHT22;23172;53.550;9.964;2024-03-23T03:11:27;10.90;95.80
37285;DHT22;23172;53.550;9.964;2024-03-23T03:16:29;10.80;95.40
37285;DHT22;23172;53.550;9.964;2024-03-23T03:21:31;10.80;95.30
37285;DHT22;23172;53.550;9.964;2024-03-23T03:26:34;10.80;95.50
37285;DHT22;23172;53.550;9.964;2024-03-23T03:31:36;10.70;95.60
37285;DHT22;23172;53.550;9.964;2024-03-23T03:36:37;10.70;95.70
37285;DHT22;23172;53.550;9.964;2024-03-23T03:41:41;10.70;95.80
37285;DHT22;23172;53.550;9.964;2024-03-23T03:46:43;10.70;95.80
37285;DHT22;23172;53.550;9.964;2024-03-23T03:51:45;10.70;95.80
37285;DHT22;23172;53.550;9.964;2024-03-23T03:56:48;10.70;96.30
37285;DHT22;23172;53.550;9.964;2024-03-23T04:01:50;10.70;95.90
37285;DHT22;23172;53.550;9.964;2024-03-23T04:06:58;10.70;96.40
37285;DHT22;23172;53.550;9.964;2024-03-23T04:12:01;10.70;96.00
37285;DHT22;23172;53.550;9.964;2024-03-23T04:17:03;10.70;95.90
37285;DHT22;23172;53.550;9.964;2024-03-23T04:22:05;10.60;95.90
37285;DHT22;23172;53.550;9.964;2024-03-23T04:27:08;10.60;95.90
37285;DHT22;23172;53.550;9.964;2024-03-23T04:32:11;10.60;95.90
37285;DHT22;23172;53.550;9.964;2024-03-23T04:37:14;10.60;95.90
37285;DHT22;23172;53.550;9.964;2024-03-23T04:42:18;10.50;95.70
37285;DHT22;23172;53.550;9.964;2024-03-23T04:47:20;10.50;95.80
37285;DHT22;23172;53.550;9.964;2024-03-23T04:52:22;10.50;95.70
37285;DHT22;23172;53.550;9.964;2024-03-23T04:57:25;10.50;95.70
37285;DHT22;23172;53.550;9.964;2024-03-23T05:02:27;10.50;95.70
37285;DHT22;23172;53.550;9.964;2024-03-23T05:07:29;10.40;95.70
37285;DHT22;23172;53.550;9.964;2024-03-23T05:12:32;10.40;95.80
37285;DHT22;23172;53.550;9.964;2024-03-23T05:17:34;10.50;95.80
37285;DHT22;23172;53.550;9.964;2024-03-23T05:22:36;10.40;95.80
37285;DHT22;23172;53.550;9.964;2024-03-23T05:27:39;10.40;95.60
37285;DHT22;23172;53.550;9.964;2024-03-23T05:32:41;10.40;95.70
37285;DHT22;23172;53.550;9.964;2024-03-23T05:37:43;10.40;95.50
37285;DHT22;23172;53.550;9.964;2024-03-23T05:42:46;10.40;95.20
37285;DHT22;23172;53.550;9.964;2024-03-23T05:47:48;10.30;95.10
37285;DHT22;23172;53.550;9.964;2024-03-23T05:52:51;10.30;95.20
37285;DHT22;23172;53.550;9.964;2024-03-23T05:57:54;10.30;95.20
37285;DHT22;23172;53.550;9.964;2024-03-23T06:02:56;10.30;95.00
37285;DHT22;23172;53.550;9.964;2024-03-23T06:07:58;10.30;94.90
37285;DHT22;23172;53.550;9.964;2024-03-23T06:13:01;10.20;94.80
37285;DHT22;23172;53.550;9.964;2024-03-23T06:18:04;10.20;95.20
37285;DHT22;23172;53.550;9.964;2024-03-23T06:23:08;10.20;95.10
37285;DHT22;23172;53.550;9.964;2024-03-23T06:28:11;10.20;95.00
37285;DHT22;23172;53.550;9.964;2024-03-23T06:33:13;10.20;95.10
37285;DHT22;23172;53.550;9.964;2024-03-23T06:38:15;10.20;94.90
37285;DHT22;23172;53.550;9.964;2024-03-23T06:43:18;10.20;95.10
37285;DHT22;23172;53.550;9.964;2024-03-23T06:48:20;10.20;95.10
37285;DHT22;23172;53.550;9.964;2024-03-23T06:53:22;10.20;95.00
37285;DHT22;23172;53.550;9.964;2024-03-23T06:58:25;10.30;95.10
37285;DHT22;23172;53.550;9.964;2024-03-23T07:03:27;10.30;95.00
37285;DHT22;23172;53.550;9.964;2024-03-23T07:08:29;10.30;94.80
37285;DHT22;23172;53.550;9.964;2024-03-23T07:13:32;10.20;94.90
37285;DHT22;23172;53.550;9.964;2024-03-23T07:18:34;10.20;95.10
37285;DHT22;23172;53.550;9.964;2024-03-23T07:23:36;10.20;95.20
37285;DHT22;23172;53.550;9.964;2024-03-23T07:28:39;10.20;95.20
37285;DHT22;23172;53.550;9.964;2024-03-23T07:33:45;10.20;95.10
37285;DHT22;23172;53.550;9.964;2024-03-23T07:38:47;10.20;95.20
37285;DHT22;23172;53.550;9.964;2024-03-23T07:43:51;10.30;95.30
37285;DHT22;23172;53.550;9.964;2024-03-23T07:48:52;10.30;95.30
37285;DHT22;23172;53.550;9.964;2024-03-23T07:53:54;10.30;95.30
37285;DHT22;23172;53.550;9.964;2024-03-23T07:58:58;10.40;95.30
37285;DHT22;23172;53.550;9.964;2024-03-23T08:04:00;10.40;95.30
37285;DHT22;23172;53.550;9.964;2024-03-23T08:09:02;10.40;95.20
37285;DHT22;23172;53.550;9.964;2024-03-23T08:14:05;10.50;94.90
37285;DHT22;23172;53.550;9.964;2024-03-23T08:19:07;10.50;94.70
37285;DHT22;23172;53.550;9.964;2024-03-23T08:24:10;10.50;94.80
37285;DHT22;23172;53.550;9.964;2024-03-23T08:29:13;10.60;94.60
37285;DHT22;23172;53.550;9.964;2024-03-23T08:34:15;10.60;94.70
37285;DHT22;23172;53.550;9.964;2024-03-23T08:39:17;10.70;94.90
37285;DHT22;23172;53.550;9.964;2024-03-23T08:44:20;10.80;95.10
37285;DHT22;23172;53.550;9.964;2024-03-23T08:49:22;11.00;94.80
37285;DHT22;23172;53.550;9.964;2024-03-23T08:54:24;11.20;94.60
37285;DHT22;23172;53.550;9.964;2024-03-23T08:59:32;11.40;94.00
37285;DHT22;23172;53.550;9.964;2024-03-23T09:04:34;11.50;92.80
37285;DHT22;23172;53.550;9.964;2024-03-23T09:09:38;11.50;92.20
37285;DHT22;23172;53.550;9.964;2024-03-23T09:14:41;11.60;91.10
37285;DHT22;23172;53.550;9.964;2024-03-23T09:19:43;11.60;91.00
37285;DHT22;23172;53.550;9.964;2024-03-23T09:24:45;11.80;90.80
37285;DHT22;23172;53.550;9.964;2024-03-23T09:29:48;11.90;89.60
37285;DHT22;23172;53.550;9.964;2024-03-23T09:34:50;11.80;86.60
37285;DHT22;23172;53.550;9.964;2024-03-23T09:39:52;11.80;84.10
37285;DHT22;23172;53.550;9.964;2024-03-23T09:44:57;11.80;83.00
37285;DHT22;23172;53.550;9.964;2024-03-23T09:50:00;11.70;81.70
37285;DHT22;23172;53.550;9.964;2024-03-23T09:55:02;11.80;81.40
37285;DHT22;23172;53.550;9.964;2024-03-23T10:00:07;11.80;81.10
37285;DHT22;23172;53.550;9.964;2024-03-23T10:05:20;11.80;80.70
37285;DHT22;23172;53.550;9.964;2024-03-23T10:10:25;12.00;80.10
37285;DHT22;23172;53.550;9.964;2024-03-23T10:15:28;12.10;79.90
37285;DHT22;23172;53.550;9.964;2024-03-23T10:20:30;12.20;78.90
37285;DHT22;23172;53.550;9.964;2024-03-23T10:25:32;12.20;78.00
37285;DHT22;23172;53.550;9.964;2024-03-23T10:30:35;12.40;77.50
37285;DHT22;23172;53.550;9.964;2024-03-23T10:35:38;12.50;76.30
37285;DHT22;23172;53.550;9.964;2024-03-23T10:40:42;12.50;76.20
37285;DHT22;23172;53.550;9.964;2024-03-23T10:45:46;12.50;76.80
37285;DHT22;23172;53.550;9.964;2024-03-23T10:50:48;12.50;77.20
37285;DHT22;23172;53.550;9.964;2024-03-23T10:55:50;12.40;77.70
37285;DHT22;23172;53.550;9.964;2024-03-23T11:00:54;12.40;78.00
37285;DHT22;23172;53.550;9.964;2024-03-23T11:05:56;12.30;78.40
37285;DHT22;23172;53.550;9.964;2024-03-23T11:11:28;12.20;79.00
37285;DHT22;23172;53.550;9.964;2024-03-23T11:16:33;12.20;80.30
37285;DHT22;23172;53.550;9.964;2024-03-23T11:21:52;12.20;80.60
37285;DHT22;23172;53.550;9.964;2024-03-23T11:26:57;12.20;79.20
37285;DHT22;23172;53.550;9.964;2024-03-23T11:32:02;12.20;78.60
37285;DHT22;23172;53.550;9.964;2024-03-23T11:37:05;12.20;77.00
37285;DHT22;23172;53.550;9.964;2024-03-23T11:42:07;12.20;77.50
37285;DHT22;23172;53.550;9.964;2024-03-23T11:47:10;12.10;76.30
37285;DHT22;23172;53.550;9.964;2024-03-23T11:52:12;12.30;76.10
37285;DHT22;23172;53.550;9.964;2024-03-23T11:57:14;12.30;74.80
37285;DHT22;23172;53.550;9.964;2024-03-23T12:02:18;12.30;73.70
37285;DHT22;23172;53.550;9.964;2024-03-23T12:07:20;12.30;72.60
37285;DHT22;23172;53.550;9.964;2024-03-23T12:12:22;12.30;72.10
37285;DHT22;23172;53.550;9.964;2024-03-23T12:17:27;12.20;71.70
37285;DHT22;23172;53.550;9.964;2024-03-23T12:22:29;12.20;71.40
37285;DHT22;23172;53.550;9.964;2024-03-23T12:27:31;12.20;71.10
37285;DHT22;23172;53.550;9.964;2024-03-23T12:32:34;12.20;71.20
37285;DHT22;23172;53.550;9.964;2024-03-23T12:37:36;12.10;71.10
37285;DHT22;23172;53.550;9.964;2024-03-23T12:42:38;12.10;71.30
37285;DHT22;23172;53.550;9.964;2024-03-23T12:47:41;12.00;71.20
37285;DHT22;23172;53.550;9.964;2024-03-23T12:52:43;11.80;70.50
37285;DHT22;23172;53.550;9.964;2024-03-23T12:57:44;11.60;71.20
37285;DHT22;23172;53.550;9.964;2024-03-23T13:02:48;11.40;71.40
37285;DHT22;23172;53.550;9.964;2024-03-23T13:07:49;11.40;72.00
37285;DHT22;23172;53.550;9.964;2024-03-23T13:12:51;11.30;72.00
37285;DHT22;23172;53.550;9.964;2024-03-23T13:17:55;11.30;72.80
37285;DHT22;23172;53.550;9.964;2024-03-23T13:22:57;11.30;72.90
37285;DHT22;23172;53.550;9.964;2024-03-23T13:27:59;11.40;73.10
37285;DHT22;23172;53.550;9.964;2024-03-23T13:33:03;11.40;72.60
37285;DHT22;23172;53.550;9.964;2024-03-23T13:38:04;11.30;72.60
37285;DHT22;23172;53.550;9.964;2024-03-23T13:43:06;11.20;72.80
37285;DHT22;23172;53.550;9.964;2024-03-23T13:48:09;11.30;73.20
37285;DHT22;23172;53.550;9.964;2024-03-23T13:53:11;11.30;73.30
37285;DHT22;23172;53.550;9.964;2024-03-23T13:58:13;11.30;73.20
37285;DHT22;23172;53.550;9.964;2024-03-23T14:03:17;11.20;73.00
37285;DHT22;23172;53.550;9.964;2024-03-23T14:08:18;11.30;73.50
37285;DHT22;23172;53.550;9.964;2024-03-23T14:13:22;11.30;72.60
37285;DHT22;23172;53.550;9.964;2024-03-23T14:18:25;11.30;72.50
37285;DHT22;23172;53.550;9.964;2024-03-23T14:23:28;11.30;72.10
37285;DHT22;23172;53.550;9.964;2024-03-23T14:28:30;11.30;71.90
37285;DHT22;23172;53.550;9.964;2024-03-23T14:33:33;11.20;71.80
37285;DHT22;23172;53.550;9.964;2024-03-23T14:38:35;11.20;71.50
37285;DHT22;23172;53.550;9.964;2024-03-23T14:43:37;11.20;71.60
37285;DHT22;23172;53.550;9.964;2024-03-23T14:48:41;11.20;71.80
37285;DHT22;23172;53.550;9.964;2024-03-23T14:53:45;11.30;71.40
37285;DHT22;23172;53.550;9.964;2024-03-23T14:58:52;11.20;70.90
37285;DHT22;23172;53.550;9.964;2024-03-23T15:03:57;11.20;72.10
37285;DHT22;23172;53.550;9.964;2024-03-23T15:09:00;11.10;73.10
37285;DHT22;23172;53.550;9.964;2024-03-23T15:14:01;11.10;74.00
37285;DHT22;23172;53.550;9.964;2024-03-23T15:19:05;11.10;74.60
37285;DHT22;23172;53.550;9.964;2024-03-23T15:24:07;11.00;74.50
37285;DHT22;23172;53.550;9.964;2024-03-23T15:29:11;11.00;74.90
37285;DHT22;23172;53.550;9.964;2024-03-23T15:34:18;11.00;75.50
37285;DHT22;23172;53.550;9.964;2024-03-23T15:39:22;11.00;75.90
37285;DHT22;23172;53.550;9.964;2024-03-23T15:44:24;11.00;76.00
37285;DHT22;23172;53.550;9.964;2024-03-23T15:49:27;11.00;76.30
37285;DHT22;23172;53.550;9.964;2024-03-23T15:54:29;11.00;76.50
37285;DHT22;23172;53.550;9.964;2024-03-23T15:59:30;11.00;76.60
37285;DHT22;23172;53.550;9.964;2024-03-23T16:04:34;11.00;76.50
37285;DHT22;23172;53.550;9.964;2024-03-23T16:09:36;10.90;76.50
37285;DHT22;23172;53.550;9.964;2024-03-23T16:14:38;10.90;76.90
37285;DHT22;23172;53.550;9.964;2024-03-23T16:19:41;10.80;76.70
37285;DHT22;23172;53.550;9.964;2024-03-23T16:24:44;10.80;77.10
37285;DHT22;23172;53.550;9.964;2024-03-23T16:29:46;10.80;77.90
37285;DHT22;23172;53.550;9.964;2024-03-23T16:34:49;10.80;77.20
37285;DHT22;23172;53.550;9.964;2024-03-23T16:39:51;10.80;77.00
37285;DHT22;23172;53.550;9.964;2024-03-23T16:44:53;10.70;77.00
37285;DHT22;23172;53.550;9.964;2024-03-23T16:49:56;10.70;76.80
37285;DHT22;23172;53.550;9.964;2024-03-23T16:54:59;10.80;76.70
37285;DHT22;23172;53.550;9.964;2024-03-23T17:00:01;10.70;76.40
37285;DHT22;23172;53.550;9.964;2024-03-23T17:05:05;10.70;76.30
37285;DHT22;23172;53.550;9.964;2024-03-23T17:10:08;10.70;76.10
37285;DHT22;23172;53.550;9.964;2024-03-23T17:15:11;10.70;75.80
37285;DHT22;23172;53.550;9.964;2024-03-23T17:20:16;10.60;75.40
37285;DHT22;23172;53.550;9.964;2024-03-23T17:25:18;10.60;75.00
37285;DHT22;23172;53.550;9.964;2024-03-23T17:30:20;10.50;75.00
37285;DHT22;23172;53.550;9.964;2024-03-23T17:35:25;10.40;75.00
37285;DHT22;23172;53.550;9.964;2024-03-23T17:40:26;10.40;75.10
37285;DHT22;23172;53.550;9.964;2024-03-23T17:45:28;10.40;75.30
37285;DHT22;23172;53.550;9.964;2024-03-23T17:50:32;10.40;75.50
37285;DHT22;23172;53.550;9.964;2024-03-23T17:55:33;10.40;75.70
37285;DHT22;23172;53.550;9.964;2024-03-23T18:00:36;10.40;75.80
37285;DHT22;23172;53.550;9.964;2024-03-23T18:05:39;10.30;75.90
37285;DHT22;23172;53.550;9.964;2024-03-23T18:10:41;10.30;76.30
37285;DHT22;23172;53.550;9.964;2024-03-23T18:15:42;10.30;76.60
37285;DHT22;23172;53.550;9.964;2024-03-23T18:20:46;10.20;76.60
37285;DHT22;23172;53.550;9.964;2024-03-23T18:25:51;10.20;76.80
37285;DHT22;23172;53.550;9.964;2024-03-23T18:30:56;10.10;77.00
37285;DHT22;23172;53.550;9.964;2024-03-23T18:36:00;10.00;77.50
37285;DHT22;23172;53.550;9.964;2024-03-23T18:41:02;10.00;78.00
37285;DHT22;23172;53.550;9.964;2024-03-23T18:46:04;10.00;78.30
37285;DHT22;23172;53.550;9.964;2024-03-23T18:51:07;10.00;78.80
37285;DHT22;23172;53.550;9.964;2024-03-23T18:56:09;10.00;79.00
37285;DHT22;23172;53.550;9.964;2024-03-23T19:01:11;10.00;79.30
37285;DHT22;23172;53.550;9.964;2024-03-23T19:06:14;10.00;79.70
37285;DHT22;23172;53.550;9.964;2024-03-23T19:11:17;10.00;79.70
37285;DHT22;23172;53.550;9.964;2024-03-23T19:16:19;10.00;80.10
37285;DHT22;23172;53.550;9.964;2024-03-23T19:21:23;10.00;80.20
37285;DHT22;23172;53.550;9.964;2024-03-23T19:26:25;10.00;80.70
37285;DHT22;23172;53.550;9.964;2024-03-23T19:31:29;10.00;81.40
37285;DHT22;23172;53.550;9.964;2024-03-23T19:36:32;10.00;82.00
37285;DHT22;23172;53.550;9.964;2024-03-23T19:41:34;10.00;82.30
37285;DHT22;23172;53.550;9.964;2024-03-23T19:46:35;9.90;82.10
37285;DHT22;23172;53.550;9.964;2024-03-23T19:51:39;9.90;82.60
37285;DHT22;23172;53.550;9.964;2024-03-23T19:56:40;9.90;82.60
37285;DHT22;23172;53.550;9.964;2024-03-23T20:01:42;9.80;82.70
37285;DHT22;23172;53.550;9.964;2024-03-23T20:06:46;9.80;83.60
37285;DHT22;23172;53.550;9.964;2024-03-23T20:11:47;9.80;84.60
37285;DHT22;23172;53.550;9.964;2024-03-23T20:16:49;9.80;84.70
37285;DHT22;23172;53.550;9.964;2024-03-23T20:21:52;9.70;85.40
37285;DHT22;23172;53.550;9.964;2024-03-23T20:26:54;9.70;85.50
37285;DHT22;23172;53.550;9.964;2024-03-23T20:31:56;9.70;85.60
37285;DHT22;23172;53.550;9.964;2024-03-23T20:36:59;9.70;85.50
37285;DHT22;23172;53.550;9.964;2024-03-23T20:42:01;9.60;85.40
37285;DHT22;23172;53.550;9.964;2024-03-23T20:47:03;9.50;85.70
37285;DHT22;23172;53.550;9.964;2024-03-23T20:52:09;9.50;86.30
37285;DHT22;23172;53.550;9.964;2024-03-23T20:57:11;9.40;86.40
37285;DHT22;23172;53.550;9.964;2024-03-23T21:02:13;9.40;87.00
37285;DHT22;23172;53.550;9.964;2024-03-23T21:07:16;9.40;87.10
37285;DHT22;23172;53.550;9.964;2024-03-23T21:12:21;9.40;86.50
37285;DHT22;23172;53.550;9.964;2024-03-23T21:17:23;9.30;86.70
37285;DHT22;23172;53.550;9.964;2024-03-23T21:22:26;9.30;86.70
37285;DHT22;23172;53.550;9.964;2024-03-23T21:27:28;9.30;86.60
37285;DHT22;23172;53.550;9.964;2024-03-23T21:32:30;9.30;86.50
37285;DHT22;23172;53.550;9.964;2024-03-23T21:37:34;9.20;86.40
37285;DHT22;23172;53.550;9.964;2024-03-23T21:42:35;9.10;86.00
37285;DHT22;23172;53.550;9.964;2024-03-23T21:47:37;9.00;86.00
37285;DHT22;23172;53.550;9.964;2024-03-23T21:52:40;9.00;86.30
37285;DHT22;23172;53.550;9.964;2024-03-23T21:57:47;8.90;86.00
37285;DHT22;23172;53.550;9.964;2024-03-23T22:02:49;8.90;86.00
37285;DHT22;23172;53.550;9.964;2024-03-23T22:07:52;8.90;86.40
37285;DHT22;23172;53.550;9.964;2024-03-23T22:12:54;8.90;86.50
37285;DHT22;23172;53.550;9.964;2024-03-23T22:17:56;8.90;86.30
37285;DHT22;23172;53.550;9.964;2024-03-23T22:23:00;8.90;86.70
37285;DHT22;23172;53.550;9.964;2024-03-23T22:28:03;8.90;86.40
37285;DHT22;23172;53.550;9.964;2024-03-23T22:33:06;8.80;86.30
37285;DHT22;23172;53.550;9.964;2024-03-23T22:38:10;8.80;86.70
37285;DHT22;23172;53.550;9.964;2024-03-23T22:43:11;8.80;86.40
37285;DHT22;23172;53.550;9.964;2024-03-23T22:48:13;8.80;87.30
37285;DHT22;23172;53.550;9.964;2024-03-23T22:53:17;8.80;86.70
37285;DHT22;23172;53.550;9.964;2024-03-23T22:58:20;8.80;86.70
37285;DHT22;23172;53.550;9.964;2024-03-23T23:03:21;8.80;86.40
37285;DHT22;23172;53.550;9.964;2024-03-23T23:08:25;8.70;86.10
37285;DHT22;23172;53.550;9.964;2024-03-23T23:13:27;8.70;86.00
37285;DHT22;23172;53.550;9.964;2024-03-23T23:18:29;8.60;85.70
37285;DHT22;23172;53.550;9.964;2024-03-23T23:23:33;8.50;85.60
37285;DHT22;23172;53.550;9.964;2024-03-23T23:28:34;8.50;85.80
37285;DHT22;23172;53.550;9.964;2024-03-23T23:33:36;8.50;86.40
37285;DHT22;23172;53.550;9.964;2024-03-23T23:38:39;8.50;86.70
37285;DHT22;23172;53.550;9.964;2024-03-23T23:43:42;8.50;87.10
37285;DHT22;23172;53.550;9.964;2024-03-23T23:48:54;8.60;87.10
37285;DHT22;23172;53.550;9.964;2024-03-23T23:53:57;8.60;87.00
37285;DHT22;23172;53.550;9.964;2024-03-23T23:58:59;8.60;87.10
